createdAt,value
2022-12-25T00:00:46.549Z,30.65
2022-12-25T00:03:19.949Z,27.35
2022-12-25T00:05:47.044Z,24.42
2022-12-25T00:08:20.911Z,25.45
2022-12-25T00:10:47.785Z,24.55
2022-12-25T00:13:20.820Z,23.48
2022-12-25T00:15:47.787Z,22.88
2022-12-25T00:18:20.850Z,23.30
2022-12-25T00:21:06.842Z,22.55
2022-12-25T00:23:34.448Z,21.45
2022-12-25T00:26:14.873Z,22.23
2022-12-25T00:28:41.810Z,22.33
2022-12-25T00:31:14.555Z,21.98
2022-12-25T00:33:49.892Z,24.52
2022-12-25T00:36:19.647Z,20.92
2022-12-25T00:38:46.762Z,20.52
2022-12-25T00:41:22.888Z,19.17
2022-12-25T00:43:49.892Z,17.98
2022-12-25T00:46:22.933Z,19.15
2022-12-25T00:48:49.883Z,19.23
2022-12-25T00:51:23.146Z,19.67
2022-12-25T00:53:50.032Z,19.35
2022-12-25T00:56:23.897Z,19.40
2022-12-25T00:58:50.794Z,19.63
2022-12-25T01:01:24.889Z,19.27
2022-12-25T01:03:51.834Z,19.35
2022-12-25T01:06:24.901Z,20.33
2022-12-25T01:08:51.810Z,19.02
2022-12-25T01:11:24.840Z,19.58
2022-12-25T01:13:51.865Z,19.80
2022-12-25T01:16:25.915Z,18.85
2022-12-25T01:18:52.834Z,19.77
2022-12-25T01:21:26.855Z,19.73
2022-12-25T01:23:53.936Z,20.90
2022-12-25T01:26:30.884Z,20.85
2022-12-25T01:29:04.006Z,22.83
2022-12-25T01:31:31.002Z,24.40
2022-12-25T01:34:06.872Z,25.33
2022-12-25T01:37:22.617Z,27.27
2022-12-25T01:39:59.779Z,26.90
2022-12-25T01:42:32.907Z,24.60
2022-12-25T01:45:43.625Z,23.67
2022-12-25T01:48:21.934Z,24.65
2022-12-25T01:51:02.595Z,23.27
2022-12-25T01:53:35.887Z,21.85
2022-12-25T01:56:05.985Z,21.55
2022-12-25T01:58:39.893Z,21.38
2022-12-25T02:01:13.922Z,20.63
2022-12-25T02:03:40.877Z,19.15
2022-12-25T02:06:14.876Z,20.65
2022-12-25T02:08:48.930Z,20.83
2022-12-25T02:11:22.904Z,20.77
2022-12-25T02:13:49.795Z,20.63
2022-12-25T02:16:29.960Z,20.50
2022-12-25T02:19:11.402Z,20.70
2022-12-25T02:22:12.904Z,20.60
2022-12-25T02:25:22.898Z,22.13
2022-12-25T02:28:29.891Z,20.80
2022-12-25T02:31:39.575Z,20.30
2022-12-25T02:34:32.900Z,19.83
2022-12-25T02:37:32.928Z,20.88
2022-12-25T02:40:25.915Z,20.02
2022-12-25T02:43:04.075Z,19.33
2022-12-25T02:46:05.971Z,19.45
2022-12-25T02:48:35.810Z,19.85
2022-12-25T02:51:10.924Z,20.00
2022-12-25T02:53:39.029Z,19.52
2022-12-25T02:56:12.924Z,19.95
2022-12-25T02:58:40.107Z,20.33
2022-12-25T03:01:20.001Z,21.48
2022-12-25T03:03:53.940Z,22.08
2022-12-25T03:06:21.016Z,22.83
2022-12-25T03:08:59.929Z,22.13
2022-12-25T03:11:26.819Z,22.63
2022-12-25T03:14:10.921Z,26.00
2022-12-25T03:16:44.011Z,23.98
2022-12-25T03:19:16.916Z,25.38
2022-12-25T03:21:43.796Z,24.38
2022-12-25T03:24:16.962Z,25.08
2022-12-25T03:26:44.298Z,27.38
2022-12-25T03:29:17.892Z,24.00
2022-12-25T03:31:53.843Z,24.08
2022-12-25T03:35:02.928Z,25.33
2022-12-25T03:37:49.550Z,25.35
2022-12-25T03:40:54.962Z,26.40
2022-12-25T03:44:00.106Z,25.30
2022-12-25T03:46:38.973Z,25.77
2022-12-25T03:49:30.934Z,26.92
2022-12-25T03:52:13.957Z,25.20
2022-12-25T03:54:46.977Z,27.83
2022-12-25T03:57:19.948Z,25.88
2022-12-25T03:59:46.833Z,25.52
2022-12-25T04:02:20.017Z,25.85
2022-12-25T04:04:54.679Z,26.23
2022-12-25T04:07:31.970Z,28.27
2022-12-25T04:09:58.855Z,27.23
2022-12-25T04:12:25.721Z,28.50
2022-12-25T04:15:00.377Z,26.92
2022-12-25T04:17:33.977Z,27.58
2022-12-25T04:20:00.886Z,28.88
2022-12-25T04:22:33.985Z,27.25
2022-12-25T04:25:06.989Z,29.30
2022-12-25T04:27:33.895Z,28.90
2022-12-25T04:30:06.966Z,26.73
2022-12-25T04:32:33.859Z,27.60
2022-12-25T04:35:06.979Z,27.25
2022-12-25T04:37:33.811Z,27.25
2022-12-25T04:40:07.021Z,27.80
2022-12-25T04:42:33.892Z,26.50
2022-12-25T04:45:06.979Z,27.20
2022-12-25T04:47:33.858Z,27.23
2022-12-25T04:50:06.977Z,28.38
2022-12-25T04:52:38.861Z,27.58
2022-12-25T04:55:13.029Z,26.95
2022-12-25T04:57:40.130Z,27.08
2022-12-25T05:00:14.983Z,27.25
2022-12-25T05:02:42.016Z,26.60
2022-12-25T05:05:16.002Z,28.45
2022-12-25T05:07:42.820Z,28.80
2022-12-25T05:10:16.949Z,28.23
2022-12-25T05:12:43.913Z,27.15
2022-12-25T05:15:18.019Z,27.67
2022-12-25T05:17:44.949Z,29.63
2022-12-25T05:20:24.994Z,28.80
2022-12-25T05:22:58.017Z,28.25
2022-12-25T05:25:30.997Z,30.33
2022-12-25T05:28:00.993Z,29.02
2022-12-25T05:30:27.861Z,31.55
2022-12-25T05:33:01.021Z,30.38
2022-12-25T05:35:27.876Z,28.48
2022-12-25T05:38:01.007Z,28.05
2022-12-25T05:40:27.869Z,28.02
2022-12-25T05:43:01.027Z,31.02
2022-12-25T05:45:27.910Z,30.20
2022-12-25T05:48:01.027Z,29.42
2022-12-25T05:50:27.928Z,28.65
2022-12-25T05:53:07.705Z,29.00
2022-12-25T05:55:38.647Z,28.23
2022-12-25T05:58:13.024Z,30.63
2022-12-25T06:00:46.980Z,28.52
2022-12-25T06:03:20.053Z,30.33
2022-12-25T06:05:46.958Z,29.58
2022-12-25T06:08:13.899Z,29.58
2022-12-25T06:10:47.023Z,31.05
2022-12-25T06:13:13.903Z,31.60
2022-12-25T06:15:48.058Z,29.85
2022-12-25T06:18:14.994Z,29.52
2022-12-25T06:20:41.843Z,29.48
2022-12-25T06:23:15.047Z,28.42
2022-12-25T06:25:41.938Z,28.45
2022-12-25T06:28:15.011Z,27.90
2022-12-25T06:30:48.021Z,27.85
2022-12-25T06:33:14.913Z,27.65
2022-12-25T06:35:41.787Z,27.88
2022-12-25T06:38:15.027Z,29.13
2022-12-25T06:40:41.901Z,30.08
2022-12-25T06:43:15.052Z,26.08
2022-12-25T06:45:41.969Z,25.58
2022-12-25T06:48:15.169Z,27.08
2022-12-25T06:50:45.152Z,26.88
2022-12-25T06:53:12.024Z,25.73
2022-12-25T06:55:45.088Z,26.27
2022-12-25T06:58:12.021Z,26.27
2022-12-25T07:00:45.059Z,28.83
2022-12-25T07:03:14.782Z,27.02
2022-12-25T07:05:41.696Z,25.10
2022-12-25T07:08:15.084Z,28.10
2022-12-25T07:10:42.007Z,29.45
2022-12-25T07:13:15.060Z,30.48
2022-12-25T07:15:41.953Z,30.48
2022-12-25T07:18:15.059Z,30.55
2022-12-25T07:20:44.936Z,30.02
2022-12-25T07:23:18.076Z,30.90
2022-12-25T07:25:53.905Z,32.60
2022-12-25T07:28:27.090Z,32.15
2022-12-25T07:30:54.006Z,31.67
2022-12-25T07:33:21.171Z,29.75
2022-12-25T07:35:54.070Z,30.85
2022-12-25T07:38:20.917Z,32.95
2022-12-25T07:40:54.078Z,30.35
2022-12-25T07:43:21.008Z,28.77
2022-12-25T07:45:54.091Z,28.88
2022-12-25T07:48:21.000Z,27.92
2022-12-25T07:50:54.077Z,29.95
2022-12-25T07:53:20.931Z,29.25
2022-12-25T07:55:54.088Z,28.75
2022-12-25T07:58:23.469Z,27.88
2022-12-25T08:00:57.188Z,26.88
2022-12-25T08:03:24.268Z,26.73
2022-12-25T08:05:58.033Z,26.83
2022-12-25T08:08:31.118Z,30.30
2022-12-25T08:10:58.056Z,28.25
2022-12-25T08:13:24.951Z,26.48
2022-12-25T08:16:07.053Z,30.00
2022-12-25T08:18:41.055Z,28.63
2022-12-25T08:21:10.481Z,27.17
2022-12-25T08:23:39.912Z,27.70
2022-12-25T08:26:14.080Z,27.20
2022-12-25T08:28:47.087Z,28.65
2022-12-25T08:31:23.092Z,29.30
2022-12-25T08:33:58.062Z,27.95
2022-12-25T08:36:25.185Z,29.05
2022-12-25T08:38:56.991Z,30.50
2022-12-25T08:41:32.112Z,29.77
2022-12-25T08:43:59.037Z,29.50
2022-12-25T08:46:32.210Z,31.05
2022-12-25T08:48:59.144Z,29.05
2022-12-25T08:51:33.058Z,30.00
2022-12-25T08:54:00.806Z,28.88
2022-12-25T08:56:35.087Z,29.45
2022-12-25T08:59:02.300Z,29.38
2022-12-25T09:01:36.247Z,30.00
2022-12-25T09:04:03.267Z,30.05
2022-12-25T09:06:37.121Z,30.08
2022-12-25T09:09:04.030Z,29.73
2022-12-25T09:11:37.095Z,29.38
2022-12-25T09:14:04.007Z,29.75
2022-12-25T09:16:40.116Z,30.00
2022-12-25T09:19:07.066Z,29.23
2022-12-25T09:21:40.178Z,29.73
2022-12-25T09:24:14.155Z,29.73
2022-12-25T09:26:41.181Z,30.50
2022-12-25T09:29:15.192Z,30.70
2022-12-25T09:31:42.226Z,31.35
2022-12-25T09:34:18.922Z,33.58
2022-12-25T09:36:53.212Z,34.83
2022-12-25T09:39:27.157Z,33.13
2022-12-25T09:42:21.123Z,30.20
2022-12-25T09:44:58.203Z,36.53
2022-12-25T09:47:30.634Z,45.10
2022-12-25T09:50:24.127Z,47.53
2022-12-25T09:53:12.670Z,46.53
2022-12-25T09:56:10.105Z,48.47
2022-12-25T09:58:37.097Z,46.78
2022-12-25T10:01:19.293Z,44.17
2022-12-25T10:04:14.209Z,43.33
2022-12-25T10:07:26.360Z,41.47
2022-12-25T10:10:33.219Z,41.63
2022-12-25T10:13:03.095Z,46.03
2022-12-25T10:16:03.243Z,44.88
2022-12-25T10:18:59.178Z,47.33
2022-12-25T10:21:26.145Z,46.20
2022-12-25T10:24:25.224Z,44.85
2022-12-25T10:26:52.570Z,46.13
2022-12-25T10:29:26.220Z,47.75
2022-12-25T10:31:54.662Z,47.20
2022-12-25T10:34:21.813Z,46.47
2022-12-25T10:36:55.311Z,47.25
2022-12-25T10:39:24.484Z,49.15
2022-12-25T10:42:33.404Z,46.13
2022-12-25T10:45:02.887Z,46.70
2022-12-25T10:47:42.382Z,46.60
2022-12-25T10:50:10.803Z,47.92
2022-12-25T10:53:02.155Z,48.00
2022-12-25T10:55:29.935Z,47.88
2022-12-25T10:57:57.097Z,49.15
2022-12-25T11:00:36.173Z,46.60
2022-12-25T11:03:03.225Z,46.70
2022-12-25T11:05:39.247Z,45.83
2022-12-25T11:08:19.986Z,44.08
2022-12-25T11:11:08.167Z,38.78
2022-12-25T11:13:39.300Z,43.20
2022-12-25T11:16:13.344Z,42.67
2022-12-25T11:18:51.545Z,42.70
2022-12-25T11:21:36.225Z,41.00
2022-12-25T11:24:12.149Z,41.72
2022-12-25T11:27:00.165Z,38.70
2022-12-25T11:29:52.316Z,41.67
2022-12-25T11:32:41.157Z,40.67
2022-12-25T11:35:14.321Z,39.92
2022-12-25T11:37:51.177Z,47.38
2022-12-25T11:40:22.350Z,42.80
2022-12-25T11:43:08.049Z,43.80
2022-12-25T11:45:43.984Z,43.90
2022-12-25T11:48:36.210Z,43.15
2022-12-25T11:51:03.508Z,41.80
2022-12-25T11:53:43.172Z,41.55
2022-12-25T11:56:29.195Z,41.67
2022-12-25T11:59:01.577Z,41.03
2022-12-25T12:01:45.330Z,42.25
2022-12-25T12:04:42.260Z,45.72
2022-12-25T12:07:33.241Z,45.13
2022-12-25T12:10:28.229Z,42.80
2022-12-25T12:13:37.236Z,43.38
2022-12-25T12:16:10.218Z,42.55
2022-12-25T12:18:50.011Z,43.45
2022-12-25T12:21:26.303Z,42.92
2022-12-25T12:24:20.235Z,41.95
2022-12-25T12:26:47.367Z,42.55
2022-12-25T12:29:49.197Z,45.20
2022-12-25T12:32:30.394Z,41.90
2022-12-25T12:35:04.202Z,41.70
2022-12-25T12:37:34.248Z,43.55
2022-12-25T12:40:07.251Z,41.78
2022-12-25T12:42:37.522Z,45.28
2022-12-25T12:45:32.279Z,43.33
2022-12-25T12:47:59.209Z,43.97
2022-12-25T12:50:37.196Z,43.22
2022-12-25T12:53:29.263Z,44.42
2022-12-25T12:56:03.249Z,44.25
2022-12-25T12:58:39.246Z,46.05
2022-12-25T13:01:27.312Z,48.15
2022-12-25T13:04:33.206Z,46.50
2022-12-25T13:07:13.388Z,43.35
2022-12-25T13:10:05.360Z,43.47
2022-12-25T13:12:39.258Z,45.47
2022-12-25T13:15:12.829Z,45.83
2022-12-25T13:17:49.227Z,45.30
2022-12-25T13:20:49.863Z,48.85
2022-12-25T13:23:41.252Z,48.13
2022-12-25T13:26:26.620Z,43.95
2022-12-25T13:29:00.250Z,45.75
2022-12-25T13:31:35.306Z,45.03
2022-12-25T13:34:13.239Z,46.10
2022-12-25T13:36:40.218Z,43.60
2022-12-25T13:39:21.253Z,46.40
2022-12-25T13:41:49.914Z,42.78
2022-12-25T13:44:28.262Z,47.92
2022-12-25T13:46:55.164Z,42.58
2022-12-25T13:49:30.233Z,45.17
2022-12-25T13:52:14.167Z,45.85
2022-12-25T13:55:16.311Z,45.45
2022-12-25T13:57:51.867Z,43.78
2022-12-25T14:00:46.333Z,43.08
2022-12-25T14:03:42.339Z,42.42
2022-12-25T14:06:30.319Z,42.72
2022-12-25T14:08:58.075Z,43.28
2022-12-25T14:11:34.328Z,45.28
2022-12-25T14:14:10.324Z,44.00
2022-12-25T14:16:37.271Z,41.83
2022-12-25T14:19:35.301Z,43.42
2022-12-25T14:22:08.262Z,41.90
2022-12-25T14:24:41.286Z,43.00
2022-12-25T14:27:20.559Z,45.95
2022-12-25T14:29:55.339Z,45.30
2022-12-25T14:32:25.213Z,43.80
2022-12-25T14:35:03.338Z,42.47
2022-12-25T14:37:38.344Z,43.17
2022-12-25T14:40:25.286Z,40.53
2022-12-25T14:43:09.342Z,42.75
2022-12-25T14:45:37.468Z,41.03
2022-12-25T14:48:32.288Z,43.30
2022-12-25T14:51:01.225Z,42.00
2022-12-25T14:53:59.344Z,40.83
2022-12-25T14:56:27.308Z,40.40
2022-12-25T14:59:03.366Z,42.10
2022-12-25T15:01:37.080Z,38.88
2022-12-25T15:04:18.325Z,42.92
2022-12-25T15:06:59.484Z,47.92
2022-12-25T15:09:34.342Z,43.78
2022-12-25T15:12:01.367Z,46.42
2022-12-25T15:14:28.429Z,42.97
2022-12-25T15:17:06.371Z,41.42
2022-12-25T15:19:38.295Z,41.50
2022-12-25T15:22:12.319Z,42.08
2022-12-25T15:24:39.371Z,41.58
2022-12-25T15:27:20.323Z,40.42
2022-12-25T15:32:41.370Z,40.13
2022-12-25T15:35:13.822Z,39.63
2022-12-25T15:37:47.392Z,39.28
2022-12-25T15:40:22.334Z,41.58
2022-12-25T15:42:49.296Z,41.35
2022-12-25T15:45:41.359Z,41.55
2022-12-25T15:48:08.294Z,40.15
2022-12-25T15:50:35.307Z,39.45
2022-12-25T15:53:08.358Z,41.03
2022-12-25T15:55:35.353Z,38.70
2022-12-25T15:58:02.314Z,39.70
2022-12-25T16:00:35.373Z,40.10
2022-12-25T16:03:08.516Z,40.72
2022-12-25T16:05:35.601Z,40.25
2022-12-25T16:08:09.331Z,38.50
2022-12-25T16:10:44.642Z,39.85
2022-12-25T16:13:18.316Z,37.42
2022-12-25T16:15:45.422Z,38.47
2022-12-25T16:18:19.422Z,37.08
2022-12-25T16:20:53.660Z,39.17
2022-12-25T16:23:27.450Z,39.22
2022-12-25T16:25:54.424Z,39.17
2022-12-25T16:28:28.394Z,38.45
2022-12-25T16:31:02.512Z,38.25
2022-12-25T16:33:36.433Z,40.15
2022-12-25T16:36:03.603Z,38.28
2022-12-25T16:38:30.572Z,38.53
2022-12-25T16:41:06.382Z,40.47
2022-12-25T16:43:40.395Z,39.70
2022-12-25T16:46:13.612Z,40.25
2022-12-25T16:48:47.423Z,40.90
2022-12-25T16:51:16.796Z,44.78
2022-12-25T16:53:43.950Z,56.67
2022-12-25T16:56:22.428Z,54.20
2022-12-25T16:58:56.412Z,46.10
2022-12-25T17:01:23.765Z,42.53
2022-12-25T17:03:57.402Z,39.85
2022-12-25T17:06:26.031Z,40.13
2022-12-25T17:09:02.397Z,39.53
2022-12-25T17:11:29.550Z,36.35
2022-12-25T17:14:07.435Z,37.92
2022-12-25T17:16:36.138Z,37.85
2022-12-25T17:19:06.318Z,35.90
2022-12-25T17:21:40.477Z,37.80
2022-12-25T17:24:07.668Z,38.67
2022-12-25T17:26:34.650Z,38.22
2022-12-25T17:29:08.431Z,38.80
2022-12-25T17:31:42.436Z,38.03
2022-12-25T17:34:10.292Z,39.42
2022-12-25T17:36:43.382Z,44.97
2022-12-25T17:39:10.449Z,41.97
2022-12-25T17:41:37.443Z,40.15
2022-12-25T17:44:11.440Z,38.58
2022-12-25T17:46:38.488Z,39.60
2022-12-25T17:49:05.596Z,40.92
2022-12-25T17:51:39.427Z,41.47
2022-12-25T17:54:13.442Z,39.15
2022-12-25T17:56:40.402Z,39.55
2022-12-25T17:59:14.457Z,41.70
2022-12-25T18:01:41.550Z,43.80
2022-12-25T18:04:16.518Z,40.33
2022-12-25T18:06:43.510Z,40.30
2022-12-25T18:09:17.434Z,39.15
2022-12-25T18:11:44.441Z,37.85
2022-12-25T18:14:22.455Z,39.22
2022-12-25T18:16:55.444Z,39.58
2022-12-25T18:19:22.400Z,43.58
2022-12-25T18:21:57.425Z,54.97
2022-12-25T18:24:30.433Z,54.97
2022-12-25T18:26:57.408Z,43.58
2022-12-25T18:29:24.351Z,37.25
2022-12-25T18:31:57.474Z,36.70
2022-12-25T18:34:24.469Z,37.58
2022-12-25T18:36:57.414Z,37.15
2022-12-25T18:39:30.439Z,41.00
2022-12-25T18:42:03.460Z,42.95
2022-12-25T18:44:30.560Z,39.00
2022-12-25T18:47:04.412Z,35.63
2022-12-25T18:49:32.351Z,38.63
2022-12-25T18:52:47.755Z,37.13
2022-12-25T18:54:52.422Z,36.83
2022-12-25T18:57:19.300Z,39.65
2022-12-25T18:59:52.508Z,38.25
2022-12-25T19:02:26.587Z,37.35
2022-12-25T19:04:53.948Z,36.92
2022-12-25T19:07:27.425Z,35.72
2022-12-25T19:10:00.451Z,36.10
2022-12-25T19:12:33.489Z,34.83
2022-12-25T19:15:00.359Z,35.58
2022-12-25T19:17:33.467Z,34.92
2022-12-25T19:20:07.456Z,36.85
2022-12-25T19:22:34.327Z,37.17
2022-12-25T19:25:01.213Z,37.17
2022-12-25T19:27:34.454Z,36.47
2022-12-25T19:30:01.387Z,36.85
2022-12-25T19:32:34.481Z,41.88
2022-12-25T19:35:07.463Z,39.80
2022-12-25T19:37:34.408Z,38.38
2022-12-25T19:40:07.456Z,39.30
2022-12-25T19:42:34.337Z,51.65
2022-12-25T19:45:01.284Z,65.68
2022-12-25T19:47:34.467Z,59.03
2022-12-25T19:50:03.455Z,53.42
2022-12-25T19:52:37.436Z,47.58
2022-12-25T19:55:11.451Z,46.80
2022-12-25T19:57:38.321Z,47.28
2022-12-25T20:00:06.363Z,46.03
2022-12-25T20:02:39.711Z,46.10
2022-12-25T20:05:07.636Z,46.05
2022-12-25T20:07:41.507Z,42.83
2022-12-25T20:10:08.742Z,45.20
2022-12-25T20:12:35.803Z,42.15
2022-12-25T20:15:09.484Z,38.22
2022-12-25T20:17:36.389Z,37.58
2022-12-25T20:20:10.552Z,37.47
2022-12-25T20:22:37.492Z,35.42
2022-12-25T20:25:11.477Z,37.83
2022-12-25T20:27:38.366Z,38.25
2022-12-25T20:30:06.283Z,36.30
2022-12-25T20:32:42.480Z,35.13
2022-12-25T20:35:11.900Z,33.10
2022-12-25T20:37:45.549Z,35.25
2022-12-25T20:40:19.582Z,36.30
2022-12-25T20:42:46.480Z,34.55
2022-12-25T20:45:19.475Z,34.65
2022-12-25T20:47:52.523Z,31.90
2022-12-25T20:50:19.560Z,31.70
2022-12-25T20:52:46.493Z,31.60
2022-12-25T20:55:19.523Z,32.22
2022-12-25T20:57:46.414Z,33.92
2022-12-25T21:00:20.484Z,32.28
2022-12-25T21:02:47.593Z,31.98
2022-12-25T21:05:21.469Z,33.25
2022-12-25T21:07:54.550Z,33.03
2022-12-25T21:10:21.430Z,32.72
2022-12-25T21:12:54.490Z,33.40
2022-12-25T21:15:27.587Z,30.00
2022-12-25T21:17:54.533Z,31.60
2022-12-25T21:20:21.494Z,32.25
2022-12-25T21:22:54.528Z,34.15
2022-12-25T21:25:27.552Z,37.15
2022-12-25T21:27:54.482Z,36.50
2022-12-25T21:30:21.417Z,33.28
2022-12-25T21:32:54.523Z,30.55
2022-12-25T21:35:21.452Z,29.25
2022-12-25T21:37:54.520Z,31.75
2022-12-25T21:40:21.447Z,28.98
2022-12-25T21:42:54.510Z,31.35
2022-12-25T21:45:21.428Z,29.98
2022-12-25T21:48:01.726Z,32.58
2022-12-25T21:50:39.414Z,30.45
2022-12-25T21:53:13.979Z,32.35
2022-12-25T21:55:41.241Z,31.85
2022-12-25T21:58:15.293Z,29.30
2022-12-25T22:00:48.728Z,29.63
2022-12-25T22:03:15.905Z,30.45
2022-12-25T22:05:49.624Z,31.55
2022-12-25T22:08:16.813Z,31.17
2022-12-25T22:10:50.575Z,30.42
2022-12-25T22:13:17.612Z,32.25
2022-12-25T22:15:51.648Z,34.60
2022-12-25T22:18:18.640Z,32.78
2022-12-25T22:20:51.572Z,32.33
2022-12-25T22:23:18.496Z,32.75
2022-12-25T22:25:51.575Z,33.88
2022-12-25T22:28:18.508Z,32.22
2022-12-25T22:30:51.643Z,32.22
2022-12-25T22:33:18.605Z,30.40
2022-12-25T22:35:52.571Z,31.13
2022-12-25T22:38:25.538Z,33.28
2022-12-25T22:40:58.515Z,31.70
2022-12-25T22:44:06.326Z,28.90
2022-12-25T22:46:19.155Z,29.58
2022-12-25T22:49:04.571Z,28.60
2022-12-25T22:51:31.502Z,28.27
2022-12-25T22:54:05.595Z,29.75
2022-12-25T22:56:32.599Z,29.08
2022-12-25T22:58:59.467Z,30.98
2022-12-25T23:01:33.725Z,29.85
2022-12-25T23:04:01.439Z,29.67
2022-12-25T23:06:34.620Z,32.08
2022-12-25T23:09:04.709Z,31.67
2022-12-25T23:11:38.594Z,29.48
2022-12-25T23:14:05.854Z,28.27
2022-12-25T23:16:32.932Z,27.90
2022-12-25T23:19:06.685Z,27.90
2022-12-25T23:21:33.612Z,27.55
2022-12-25T23:24:07.562Z,26.55
2022-12-25T23:26:34.481Z,27.55
2022-12-25T23:29:07.544Z,30.08
2022-12-25T23:31:36.650Z,31.65
2022-12-25T23:34:10.631Z,32.08
2022-12-25T23:36:37.612Z,30.58
2022-12-25T23:39:09.454Z,30.88
2022-12-25T23:41:47.671Z,29.92
2022-12-25T23:44:14.674Z,28.83
2022-12-25T23:46:52.801Z,30.55
2022-12-25T23:49:27.641Z,28.90
2022-12-25T23:51:54.785Z,28.02
2022-12-25T23:54:30.707Z,27.95
2022-12-25T23:57:04.601Z,30.63
2022-12-25T23:59:31.624Z,29.70
